BRIO2: Bridgeport 4E

                                SHEF ID:       BRIO2     Canadian River at Bridgeport, OK
STATION TYPE:
Regulating: Stage = 15.00, Flow = 8372

STAGE RIV-FLOW BAT-LOAD
ft cfs volt
Ccp-Rev Ccp-Rev Ccp-Rev
(America/Chicago)
10/24 00:00 9.74 139 12.73
10/24 01:00 9.75 141 12.73
10/24 02:00 9.80 147 12.71
10/24 03:00 9.86 155 12.70
10/24 04:00 9.80 147 12.70
10/24 05:00 9.78 144 12.67
10/24 06:00 9.81 148 12.66
10/24 07:00 9.79 146 12.63
10/24 08:00 9.86 155 12.62
10/24 09:00 9.83 151 12.60
10/24 10:00 9.85 154 12.65
10/24 11:00 9.91 162 12.76
10/24 12:00 9.90 161 12.96
10/24 13:00 9.90 161 13.11
10/24 14:00 9.93 165 13.19
10/24 15:00 10.01 177 13.20
10/24 16:00 10.03 182 13.27
10/24 17:00 10.04 185 13.29
10/24 18:00 10.07 194 13.36
10/24 19:00 10.12 209 13.16
10/24 20:00 10.13 213 12.89
10/24 21:00 10.11 206 12.82
10/24 22:00 10.12 209 12.78
10/24 23:00 10.12 209 12.77
Data processed at Wed 25Oct2023 04:55 GMT

Parsing this webpage?

Checkout our new Data API! CWMSDataAPI (CDA)

All information presented herein is the property of the government of the United States of America and may be revised or deleted at any time without prior notice. Dissemination of this information without the expressed written consent of the Public Affairs Office, Tulsa District U.S. Army Corps of Engineers is strictly prohibited. These data are gathered electronically and, as presented, have NOT undergone any form of quality control. These data are NOT guaranteed to be valid or correct.